sensor_id;sensor_type;location;lat;lon;timestamp;P1;durP1;ratioP1;P2;durP2;ratioP2
16870;SDS011;8552;48.120;-1.456;2023-04-25T00:01:24;5.22;;;3.45;;
16870;SDS011;8552;48.120;-1.456;2023-04-25T00:03:50;11.07;;;4.18;;
16870;SDS011;8552;48.120;-1.456;2023-04-25T00:06:16;7.17;;;2.90;;
16870;SDS011;8552;48.120;-1.456;2023-04-25T00:08:42;6.70;;;2.87;;
16870;SDS011;8552;48.120;-1.456;2023-04-25T00:11:08;3.17;;;2.43;;
16870;SDS011;8552;48.120;-1.456;2023-04-25T00:13:34;3.55;;;2.45;;
16870;SDS011;8552;48.120;-1.456;2023-04-25T00:16:00;3.33;;;2.40;;
16870;SDS011;8552;48.120;-1.456;2023-04-25T00:18:27;3.03;;;2.30;;
16870;SDS011;8552;48.120;-1.456;2023-04-25T00:20:54;4.77;;;2.20;;
16870;SDS011;8552;48.120;-1.456;2023-04-25T00:23:20;3.00;;;2.17;;
16870;SDS011;8552;48.120;-1.456;2023-04-25T00:25:47;4.27;;;2.07;;
16870;SDS011;8552;48.120;-1.456;2023-04-25T00:28:14;2.43;;;1.80;;
16870;SDS011;8552;48.120;-1.456;2023-04-25T00:30:40;2.10;;;1.90;;
16870;SDS011;8552;48.120;-1.456;2023-04-25T00:33:07;3.20;;;1.90;;
16870;SDS011;8552;48.120;-1.456;2023-04-25T00:35:33;3.13;;;1.80;;
16870;SDS011;8552;48.120;-1.456;2023-04-25T00:37:59;2.83;;;1.60;;
16870;SDS011;8552;48.120;-1.456;2023-04-25T00:40:25;2.60;;;1.97;;
16870;SDS011;8552;48.120;-1.456;2023-04-25T00:42:51;2.10;;;1.70;;
16870;SDS011;8552;48.120;-1.456;2023-04-25T00:45:18;2.10;;;1.77;;
16870;SDS011;8552;48.120;-1.456;2023-04-25T00:47:43;3.70;;;1.93;;
16870;SDS011;8552;48.120;-1.456;2023-04-25T00:50:10;3.67;;;2.10;;
16870;SDS011;8552;48.120;-1.456;2023-04-25T00:52:40;4.30;;;2.37;;
16870;SDS011;8552;48.120;-1.456;2023-04-25T00:55:08;2.67;;;2.00;;
16870;SDS011;8552;48.120;-1.456;2023-04-25T00:57:35;2.67;;;1.90;;
16870;SDS011;8552;48.120;-1.456;2023-04-25T01:00:02;2.63;;;2.17;;
16870;SDS011;8552;48.120;-1.456;2023-04-25T01:02:30;2.37;;;1.63;;
16870;SDS011;8552;48.120;-1.456;2023-04-25T01:04:57;2.73;;;1.60;;
16870;SDS011;8552;48.120;-1.456;2023-04-25T01:07:23;1.60;;;1.50;;
16870;SDS011;8552;48.120;-1.456;2023-04-25T01:09:51;1.53;;;1.37;;
16870;SDS011;8552;48.120;-1.456;2023-04-25T01:12:17;2.53;;;1.40;;
16870;SDS011;8552;48.120;-1.456;2023-04-25T01:14:43;1.90;;;1.43;;
16870;SDS011;8552;48.120;-1.456;2023-04-25T01:17:09;1.40;;;1.30;;
16870;SDS011;8552;48.120;-1.456;2023-04-25T01:19:36;2.43;;;1.43;;
16870;SDS011;8552;48.120;-1.456;2023-04-25T01:22:01;1.80;;;1.40;;
16870;SDS011;8552;48.120;-1.456;2023-04-25T01:24:28;1.20;;;1.10;;
16870;SDS011;8552;48.120;-1.456;2023-04-25T01:26:54;1.73;;;1.30;;
16870;SDS011;8552;48.120;-1.456;2023-04-25T01:29:21;2.37;;;1.70;;
16870;SDS011;8552;48.120;-1.456;2023-04-25T01:31:48;3.77;;;1.27;;
16870;SDS011;8552;48.120;-1.456;2023-04-25T01:34:14;4.23;;;1.53;;
16870;SDS011;8552;48.120;-1.456;2023-04-25T01:36:40;2.20;;;1.47;;
16870;SDS011;8552;48.120;-1.456;2023-04-25T01:39:06;2.00;;;1.07;;
16870;SDS011;8552;48.120;-1.456;2023-04-25T01:41:32;2.40;;;1.10;;
16870;SDS011;8552;48.120;-1.456;2023-04-25T01:43:59;2.67;;;1.37;;
16870;SDS011;8552;48.120;-1.456;2023-04-25T01:46:26;1.63;;;1.40;;
16870;SDS011;8552;48.120;-1.456;2023-04-25T01:48:52;5.27;;;2.10;;
16870;SDS011;8552;48.120;-1.456;2023-04-25T01:51:18;2.77;;;1.80;;
16870;SDS011;8552;48.120;-1.456;2023-04-25T01:53:43;2.27;;;1.50;;
16870;SDS011;8552;48.120;-1.456;2023-04-25T01:56:09;4.13;;;2.00;;
16870;SDS011;8552;48.120;-1.456;2023-04-25T01:58:35;3.83;;;2.10;;
16870;SDS011;8552;48.120;-1.456;2023-04-25T02:01:01;1.77;;;1.67;;
16870;SDS011;8552;48.120;-1.456;2023-04-25T02:03:27;3.03;;;1.57;;
16870;SDS011;8552;48.120;-1.456;2023-04-25T02:05:54;1.87;;;1.40;;
16870;SDS011;8552;48.120;-1.456;2023-04-25T02:08:20;4.07;;;1.43;;
16870;SDS011;8552;48.120;-1.456;2023-04-25T02:10:46;1.60;;;1.13;;
16870;SDS011;8552;48.120;-1.456;2023-04-25T02:13:11;1.70;;;1.33;;
16870;SDS011;8552;48.120;-1.456;2023-04-25T02:15:37;1.33;;;1.23;;
16870;SDS011;8552;48.120;-1.456;2023-04-25T02:18:03;4.77;;;1.60;;
16870;SDS011;8552;48.120;-1.456;2023-04-25T02:20:29;1.73;;;1.50;;
16870;SDS011;8552;48.120;-1.456;2023-04-25T02:22:55;3.17;;;1.90;;
16870;SDS011;8552;48.120;-1.456;2023-04-25T02:25:21;3.13;;;1.77;;
16870;SDS011;8552;48.120;-1.456;2023-04-25T02:27:47;1.93;;;1.73;;
16870;SDS011;8552;48.120;-1.456;2023-04-25T02:30:13;2.93;;;1.83;;
16870;SDS011;8552;48.120;-1.456;2023-04-25T02:32:40;2.17;;;1.43;;
16870;SDS011;8552;48.120;-1.456;2023-04-25T02:35:06;4.50;;;2.17;;
16870;SDS011;8552;48.120;-1.456;2023-04-25T02:37:33;2.43;;;1.77;;
16870;SDS011;8552;48.120;-1.456;2023-04-25T02:40:00;4.20;;;1.93;;
16870;SDS011;8552;48.120;-1.456;2023-04-25T02:42:26;4.20;;;1.90;;
16870;SDS011;8552;48.120;-1.456;2023-04-25T02:44:52;2.20;;;1.80;;
16870;SDS011;8552;48.120;-1.456;2023-04-25T02:47:18;2.63;;;2.30;;
16870;SDS011;8552;48.120;-1.456;2023-04-25T02:49:44;2.07;;;1.70;;
16870;SDS011;8552;48.120;-1.456;2023-04-25T02:52:10;4.20;;;2.03;;
16870;SDS011;8552;48.120;-1.456;2023-04-25T02:54:37;2.40;;;1.50;;
16870;SDS011;8552;48.120;-1.456;2023-04-25T02:57:04;1.97;;;1.57;;
16870;SDS011;8552;48.120;-1.456;2023-04-25T02:59:29;1.50;;;1.40;;
16870;SDS011;8552;48.120;-1.456;2023-04-25T03:01:55;4.50;;;2.47;;
16870;SDS011;8552;48.120;-1.456;2023-04-25T03:04:21;4.27;;;2.47;;
16870;SDS011;8552;48.120;-1.456;2023-04-25T03:06:48;4.43;;;2.77;;
16870;SDS011;8552;48.120;-1.456;2023-04-25T03:09:15;4.00;;;2.60;;
16870;SDS011;8552;48.120;-1.456;2023-04-25T03:11:40;2.17;;;1.70;;
16870;SDS011;8552;48.120;-1.456;2023-04-25T03:14:06;4.57;;;2.30;;
16870;SDS011;8552;48.120;-1.456;2023-04-25T03:16:32;2.87;;;1.90;;
16870;SDS011;8552;48.120;-1.456;2023-04-25T03:18:58;13.07;;;3.23;;
16870;SDS011;8552;48.120;-1.456;2023-04-25T03:21:24;3.17;;;2.17;;
16870;SDS011;8552;48.120;-1.456;2023-04-25T03:23:51;2.90;;;1.73;;
16870;SDS011;8552;48.120;-1.456;2023-04-25T03:26:17;5.93;;;2.63;;
16870;SDS011;8552;48.120;-1.456;2023-04-25T03:28:42;2.57;;;2.37;;
16870;SDS011;8552;48.120;-1.456;2023-04-25T03:31:08;2.77;;;2.00;;
16870;SDS011;8552;48.120;-1.456;2023-04-25T03:33:34;5.10;;;2.23;;
16870;SDS011;8552;48.120;-1.456;2023-04-25T03:36:00;3.87;;;2.13;;
16870;SDS011;8552;48.120;-1.456;2023-04-25T03:38:25;4.27;;;2.30;;
16870;SDS011;8552;48.120;-1.456;2023-04-25T03:40:51;3.43;;;1.90;;
16870;SDS011;8552;48.120;-1.456;2023-04-25T03:43:17;2.90;;;2.37;;
16870;SDS011;8552;48.120;-1.456;2023-04-25T03:45:42;2.23;;;1.53;;
16870;SDS011;8552;48.120;-1.456;2023-04-25T03:48:08;3.47;;;1.80;;
16870;SDS011;8552;48.120;-1.456;2023-04-25T03:50:34;3.73;;;2.00;;
16870;SDS011;8552;48.120;-1.456;2023-04-25T03:53:00;3.43;;;2.13;;
16870;SDS011;8552;48.120;-1.456;2023-04-25T03:55:25;10.07;;;2.33;;
16870;SDS011;8552;48.120;-1.456;2023-04-25T03:57:51;3.67;;;2.53;;
16870;SDS011;8552;48.120;-1.456;2023-04-25T04:00:16;3.03;;;2.43;;
16870;SDS011;8552;48.120;-1.456;2023-04-25T04:02:42;2.63;;;2.40;;
16870;SDS011;8552;48.120;-1.456;2023-04-25T04:05:08;3.07;;;2.27;;
16870;SDS011;8552;48.120;-1.456;2023-04-25T04:07:34;3.23;;;1.87;;
16870;SDS011;8552;48.120;-1.456;2023-04-25T04:10:05;2.97;;;2.10;;
16870;SDS011;8552;48.120;-1.456;2023-04-25T04:12:37;2.70;;;2.50;;
16870;SDS011;8552;48.120;-1.456;2023-04-25T04:15:03;2.57;;;2.00;;
16870;SDS011;8552;48.120;-1.456;2023-04-25T04:17:30;3.03;;;1.87;;
16870;SDS011;8552;48.120;-1.456;2023-04-25T04:19:56;4.33;;;3.00;;
16870;SDS011;8552;48.120;-1.456;2023-04-25T04:22:23;2.30;;;2.10;;
16870;SDS011;8552;48.120;-1.456;2023-04-25T04:24:49;3.97;;;2.30;;
16870;SDS011;8552;48.120;-1.456;2023-04-25T04:27:18;2.67;;;2.00;;
16870;SDS011;8552;48.120;-1.456;2023-04-25T04:29:44;2.40;;;2.20;;
16870;SDS011;8552;48.120;-1.456;2023-04-25T04:32:11;3.50;;;2.30;;
16870;SDS011;8552;48.120;-1.456;2023-04-25T04:34:37;3.77;;;2.37;;
16870;SDS011;8552;48.120;-1.456;2023-04-25T04:37:04;3.17;;;1.93;;
16870;SDS011;8552;48.120;-1.456;2023-04-25T04:39:30;2.50;;;1.80;;
16870;SDS011;8552;48.120;-1.456;2023-04-25T04:41:56;5.40;;;2.30;;
16870;SDS011;8552;48.120;-1.456;2023-04-25T04:44:22;2.80;;;1.97;;
16870;SDS011;8552;48.120;-1.456;2023-04-25T04:46:47;2.10;;;1.90;;
16870;SDS011;8552;48.120;-1.456;2023-04-25T04:49:13;3.87;;;2.20;;
16870;SDS011;8552;48.120;-1.456;2023-04-25T04:51:40;3.93;;;2.20;;
16870;SDS011;8552;48.120;-1.456;2023-04-25T04:54:09;3.57;;;2.27;;
16870;SDS011;8552;48.120;-1.456;2023-04-25T04:56:34;4.77;;;2.40;;
16870;SDS011;8552;48.120;-1.456;2023-04-25T04:59:00;3.97;;;3.00;;
16870;SDS011;8552;48.120;-1.456;2023-04-25T05:01:27;7.10;;;3.50;;
16870;SDS011;8552;48.120;-1.456;2023-04-25T05:03:55;5.10;;;3.63;;
16870;SDS011;8552;48.120;-1.456;2023-04-25T05:06:25;5.77;;;4.00;;
16870;SDS011;8552;48.120;-1.456;2023-04-25T05:08:51;5.37;;;3.27;;
16870;SDS011;8552;48.120;-1.456;2023-04-25T05:11:17;3.67;;;2.90;;
16870;SDS011;8552;48.120;-1.456;2023-04-25T05:13:43;5.07;;;2.93;;
16870;SDS011;8552;48.120;-1.456;2023-04-25T05:16:10;7.23;;;3.50;;
16870;SDS011;8552;48.120;-1.456;2023-04-25T05:18:36;3.47;;;2.83;;
16870;SDS011;8552;48.120;-1.456;2023-04-25T05:21:02;4.83;;;3.60;;
16870;SDS011;8552;48.120;-1.456;2023-04-25T05:23:28;3.67;;;2.60;;
16870;SDS011;8552;48.120;-1.456;2023-04-25T05:25:55;6.10;;;3.50;;
16870;SDS011;8552;48.120;-1.456;2023-04-25T05:28:21;4.30;;;2.83;;
16870;SDS011;8552;48.120;-1.456;2023-04-25T05:30:47;6.50;;;4.30;;
16870;SDS011;8552;48.120;-1.456;2023-04-25T05:33:12;6.87;;;3.67;;
16870;SDS011;8552;48.120;-1.456;2023-04-25T05:35:38;8.33;;;4.17;;
16870;SDS011;8552;48.120;-1.456;2023-04-25T05:38:04;8.20;;;4.10;;
16870;SDS011;8552;48.120;-1.456;2023-04-25T05:40:30;4.70;;;3.77;;
16870;SDS011;8552;48.120;-1.456;2023-04-25T05:42:55;6.90;;;3.70;;
16870;SDS011;8552;48.120;-1.456;2023-04-25T05:45:21;4.30;;;3.10;;
16870;SDS011;8552;48.120;-1.456;2023-04-25T05:47:47;6.40;;;3.03;;
16870;SDS011;8552;48.120;-1.456;2023-04-25T05:50:12;7.17;;;3.13;;
16870;SDS011;8552;48.120;-1.456;2023-04-25T05:52:38;7.43;;;2.87;;
16870;SDS011;8552;48.120;-1.456;2023-04-25T05:55:04;3.80;;;2.70;;
16870;SDS011;8552;48.120;-1.456;2023-04-25T05:57:30;4.60;;;2.90;;
16870;SDS011;8552;48.120;-1.456;2023-04-25T05:59:56;4.50;;;2.90;;
16870;SDS011;8552;48.120;-1.456;2023-04-25T06:02:22;7.20;;;4.03;;
16870;SDS011;8552;48.120;-1.456;2023-04-25T06:04:51;8.57;;;5.67;;
16870;SDS011;8552;48.120;-1.456;2023-04-25T06:07:31;8.03;;;3.83;;
16870;SDS011;8552;48.120;-1.456;2023-04-25T06:10:02;7.57;;;4.20;;
16870;SDS011;8552;48.120;-1.456;2023-04-25T06:12:32;6.10;;;4.30;;
16870;SDS011;8552;48.120;-1.456;2023-04-25T06:14:58;5.50;;;3.80;;
16870;SDS011;8552;48.120;-1.456;2023-04-25T06:17:24;8.97;;;4.87;;
16870;SDS011;8552;48.120;-1.456;2023-04-25T06:19:50;9.20;;;5.30;;
16870;SDS011;8552;48.120;-1.456;2023-04-25T06:22:16;10.17;;;5.10;;
16870;SDS011;8552;48.120;-1.456;2023-04-25T06:24:42;6.97;;;5.07;;
16870;SDS011;8552;48.120;-1.456;2023-04-25T06:27:07;8.33;;;4.93;;
16870;SDS011;8552;48.120;-1.456;2023-04-25T06:29:33;12.63;;;5.63;;
16870;SDS011;8552;48.120;-1.456;2023-04-25T06:31:58;7.27;;;5.60;;
16870;SDS011;8552;48.120;-1.456;2023-04-25T06:34:24;9.60;;;5.43;;
16870;SDS011;8552;48.120;-1.456;2023-04-25T06:36:50;9.10;;;6.00;;
16870;SDS011;8552;48.120;-1.456;2023-04-25T06:39:15;10.60;;;5.40;;
16870;SDS011;8552;48.120;-1.456;2023-04-25T06:41:41;10.53;;;6.23;;
16870;SDS011;8552;48.120;-1.456;2023-04-25T06:44:07;11.37;;;6.47;;
16870;SDS011;8552;48.120;-1.456;2023-04-25T06:46:33;13.67;;;7.17;;
16870;SDS011;8552;48.120;-1.456;2023-04-25T06:48:58;8.97;;;6.37;;
16870;SDS011;8552;48.120;-1.456;2023-04-25T06:51:24;12.30;;;6.77;;
16870;SDS011;8552;48.120;-1.456;2023-04-25T06:53:53;12.13;;;7.27;;
16870;SDS011;8552;48.120;-1.456;2023-04-25T06:56:18;13.00;;;7.47;;
16870;SDS011;8552;48.120;-1.456;2023-04-25T06:58:44;16.57;;;7.83;;
16870;SDS011;8552;48.120;-1.456;2023-04-25T07:01:10;10.10;;;7.17;;
16870;SDS011;8552;48.120;-1.456;2023-04-25T07:03:35;12.37;;;6.90;;
16870;SDS011;8552;48.120;-1.456;2023-04-25T07:06:02;19.43;;;8.40;;
16870;SDS011;8552;48.120;-1.456;2023-04-25T07:08:28;14.60;;;9.47;;
16870;SDS011;8552;48.120;-1.456;2023-04-25T07:10:54;19.50;;;9.43;;
16870;SDS011;8552;48.120;-1.456;2023-04-25T07:13:20;18.70;;;9.33;;
16870;SDS011;8552;48.120;-1.456;2023-04-25T07:15:46;24.03;;;10.07;;
16870;SDS011;8552;48.120;-1.456;2023-04-25T07:18:13;18.73;;;9.90;;
16870;SDS011;8552;48.120;-1.456;2023-04-25T07:20:39;16.83;;;9.40;;
16870;SDS011;8552;48.120;-1.456;2023-04-25T07:23:04;22.37;;;9.60;;
16870;SDS011;8552;48.120;-1.456;2023-04-25T07:25:30;16.17;;;9.30;;
16870;SDS011;8552;48.120;-1.456;2023-04-25T07:27:56;15.27;;;8.73;;
16870;SDS011;8552;48.120;-1.456;2023-04-25T07:30:22;15.63;;;9.20;;
16870;SDS011;8552;48.120;-1.456;2023-04-25T07:32:47;19.23;;;9.57;;
16870;SDS011;8552;48.120;-1.456;2023-04-25T07:35:14;18.37;;;9.53;;
16870;SDS011;8552;48.120;-1.456;2023-04-25T07:37:40;20.33;;;11.20;;
16870;SDS011;8552;48.120;-1.456;2023-04-25T07:40:05;17.47;;;11.07;;
16870;SDS011;8552;48.120;-1.456;2023-04-25T07:42:32;18.05;;;9.75;;
16870;SDS011;8552;48.120;-1.456;2023-04-25T07:44:58;13.57;;;9.13;;
16870;SDS011;8552;48.120;-1.456;2023-04-25T07:47:25;17.43;;;9.57;;
16870;SDS011;8552;48.120;-1.456;2023-04-25T07:49:50;14.60;;;9.27;;
16870;SDS011;8552;48.120;-1.456;2023-04-25T07:52:16;15.02;;;9.68;;
16870;SDS011;8552;48.120;-1.456;2023-04-25T07:54:42;14.60;;;8.90;;
16870;SDS011;8552;48.120;-1.456;2023-04-25T07:57:08;12.45;;;8.30;;
16870;SDS011;8552;48.120;-1.456;2023-04-25T07:59:33;12.25;;;7.18;;
16870;SDS011;8552;48.120;-1.456;2023-04-25T08:02:00;11.73;;;6.93;;
16870;SDS011;8552;48.120;-1.456;2023-04-25T08:04:26;11.80;;;7.15;;
16870;SDS011;8552;48.120;-1.456;2023-04-25T08:06:53;9.15;;;6.47;;
16870;SDS011;8552;48.120;-1.456;2023-04-25T08:09:21;13.73;;;6.90;;
16870;SDS011;8552;48.120;-1.456;2023-04-25T08:11:47;11.57;;;6.45;;
16870;SDS011;8552;48.120;-1.456;2023-04-25T08:14:13;12.52;;;6.00;;
16870;SDS011;8552;48.120;-1.456;2023-04-25T08:16:39;12.48;;;6.18;;
16870;SDS011;8552;48.120;-1.456;2023-04-25T08:19:05;12.55;;;6.07;;
16870;SDS011;8552;48.120;-1.456;2023-04-25T08:21:31;10.07;;;6.20;;
16870;SDS011;8552;48.120;-1.456;2023-04-25T08:23:59;10.38;;;6.20;;
16870;SDS011;8552;48.120;-1.456;2023-04-25T08:26:28;9.68;;;6.00;;
16870;SDS011;8552;48.120;-1.456;2023-04-25T08:29:00;11.85;;;7.15;;
16870;SDS011;8552;48.120;-1.456;2023-04-25T08:31:28;10.50;;;5.75;;
16870;SDS011;8552;48.120;-1.456;2023-04-25T08:33:53;11.00;;;5.88;;
16870;SDS011;8552;48.120;-1.456;2023-04-25T08:36:19;15.93;;;8.00;;
16870;SDS011;8552;48.120;-1.456;2023-04-25T08:38:45;11.32;;;7.47;;
16870;SDS011;8552;48.120;-1.456;2023-04-25T08:41:11;9.88;;;6.38;;
16870;SDS011;8552;48.120;-1.456;2023-04-25T08:43:37;8.70;;;5.13;;
16870;SDS011;8552;48.120;-1.456;2023-04-25T08:46:05;9.75;;;5.85;;
16870;SDS011;8552;48.120;-1.456;2023-04-25T08:48:32;8.57;;;6.05;;
16870;SDS011;8552;48.120;-1.456;2023-04-25T08:51:01;10.85;;;5.72;;
16870;SDS011;8552;48.120;-1.456;2023-04-25T08:53:29;9.80;;;5.90;;
16870;SDS011;8552;48.120;-1.456;2023-04-25T08:55:57;9.10;;;5.72;;
16870;SDS011;8552;48.120;-1.456;2023-04-25T08:58:24;9.90;;;6.20;;
16870;SDS011;8552;48.120;-1.456;2023-04-25T09:00:51;8.32;;;5.95;;
16870;SDS011;8552;48.120;-1.456;2023-04-25T09:03:17;7.10;;;5.45;;
16870;SDS011;8552;48.120;-1.456;2023-04-25T09:05:44;10.32;;;5.70;;
16870;SDS011;8552;48.120;-1.456;2023-04-25T09:08:09;8.95;;;5.40;;
16870;SDS011;8552;48.120;-1.456;2023-04-25T09:10:35;7.97;;;5.60;;
16870;SDS011;8552;48.120;-1.456;2023-04-25T09:13:08;9.98;;;4.43;;
16870;SDS011;8552;48.120;-1.456;2023-04-25T09:15:51;7.13;;;5.07;;
16870;SDS011;8552;48.120;-1.456;2023-04-25T09:18:22;8.23;;;5.05;;
16870;SDS011;8552;48.120;-1.456;2023-04-25T09:20:56;7.18;;;5.10;;
16870;SDS011;8552;48.120;-1.456;2023-04-25T09:23:23;7.50;;;4.72;;
16870;SDS011;8552;48.120;-1.456;2023-04-25T09:25:50;6.15;;;4.63;;
16870;SDS011;8552;48.120;-1.456;2023-04-25T09:28:26;6.80;;;5.18;;
16870;SDS011;8552;48.120;-1.456;2023-04-25T09:30:56;7.75;;;4.97;;
16870;SDS011;8552;48.120;-1.456;2023-04-25T09:33:28;6.75;;;5.05;;
16870;SDS011;8552;48.120;-1.456;2023-04-25T09:36:16;7.65;;;5.03;;
16870;SDS011;8552;48.120;-1.456;2023-04-25T09:38:44;6.78;;;3.92;;
16870;SDS011;8552;48.120;-1.456;2023-04-25T09:41:11;6.72;;;4.25;;
16870;SDS011;8552;48.120;-1.456;2023-04-25T09:43:37;5.00;;;3.70;;
16870;SDS011;8552;48.120;-1.456;2023-04-25T09:46:10;7.03;;;4.25;;
16870;SDS011;8552;48.120;-1.456;2023-04-25T09:48:36;7.85;;;4.45;;
16870;SDS011;8552;48.120;-1.456;2023-04-25T09:51:06;7.43;;;4.70;;
16870;SDS011;8552;48.120;-1.456;2023-04-25T09:53:42;7.85;;;4.25;;
16870;SDS011;8552;48.120;-1.456;2023-04-25T09:56:09;5.30;;;4.45;;
16870;SDS011;8552;48.120;-1.456;2023-04-25T09:58:37;5.60;;;4.72;;
16870;SDS011;8552;48.120;-1.456;2023-04-25T10:01:05;5.50;;;4.35;;
16870;SDS011;8552;48.120;-1.456;2023-04-25T10:03:36;8.27;;;4.30;;
16870;SDS011;8552;48.120;-1.456;2023-04-25T10:06:09;8.02;;;4.45;;
16870;SDS011;8552;48.120;-1.456;2023-04-25T10:08:39;8.95;;;4.80;;
16870;SDS011;8552;48.120;-1.456;2023-04-25T10:11:06;8.52;;;5.65;;
16870;SDS011;8552;48.120;-1.456;2023-04-25T10:13:33;6.30;;;4.82;;
16870;SDS011;8552;48.120;-1.456;2023-04-25T10:16:03;7.78;;;4.90;;
16870;SDS011;8552;48.120;-1.456;2023-04-25T10:18:30;7.63;;;4.30;;
16870;SDS011;8552;48.120;-1.456;2023-04-25T10:20:59;6.85;;;4.20;;
16870;SDS011;8552;48.120;-1.456;2023-04-25T10:23:26;6.75;;;3.90;;
16870;SDS011;8552;48.120;-1.456;2023-04-25T10:25:54;4.78;;;4.22;;
16870;SDS011;8552;48.120;-1.456;2023-04-25T10:28:20;5.45;;;3.67;;
16870;SDS011;8552;48.120;-1.456;2023-04-25T10:31:07;5.55;;;3.78;;
16870;SDS011;8552;48.120;-1.456;2023-04-25T10:33:37;5.45;;;3.60;;
16870;SDS011;8552;48.120;-1.456;2023-04-25T10:36:08;5.57;;;4.22;;
16870;SDS011;8552;48.120;-1.456;2023-04-25T10:38:35;6.43;;;4.03;;
16870;SDS011;8552;48.120;-1.456;2023-04-25T10:41:05;7.03;;;4.10;;
16870;SDS011;8552;48.120;-1.456;2023-04-25T10:46:13;4.30;;;3.35;;
16870;SDS011;8552;48.120;-1.456;2023-04-25T10:48:53;5.47;;;3.60;;
16870;SDS011;8552;48.120;-1.456;2023-04-25T10:51:24;5.20;;;3.67;;
16870;SDS011;8552;48.120;-1.456;2023-04-25T10:56:48;4.15;;;3.40;;
16870;SDS011;8552;48.120;-1.456;2023-04-25T10:59:16;5.47;;;2.70;;
16870;SDS011;8552;48.120;-1.456;2023-04-25T11:01:45;5.00;;;3.25;;
16870;SDS011;8552;48.120;-1.456;2023-04-25T11:04:20;5.07;;;2.80;;
16870;SDS011;8552;48.120;-1.456;2023-04-25T11:09:52;5.68;;;3.50;;
16870;SDS011;8552;48.120;-1.456;2023-04-25T11:12:19;4.72;;;2.88;;
16870;SDS011;8552;48.120;-1.456;2023-04-25T11:14:45;4.90;;;2.95;;
16870;SDS011;8552;48.120;-1.456;2023-04-25T11:17:12;6.45;;;2.97;;
16870;SDS011;8552;48.120;-1.456;2023-04-25T11:19:42;3.67;;;2.90;;
16870;SDS011;8552;48.120;-1.456;2023-04-25T11:22:09;4.20;;;2.60;;
16870;SDS011;8552;48.120;-1.456;2023-04-25T11:24:37;4.30;;;2.42;;
16870;SDS011;8552;48.120;-1.456;2023-04-25T11:27:05;3.28;;;2.97;;
16870;SDS011;8552;48.120;-1.456;2023-04-25T11:29:32;4.72;;;3.30;;
16870;SDS011;8552;48.120;-1.456;2023-04-25T11:31:59;3.70;;;2.75;;
16870;SDS011;8552;48.120;-1.456;2023-04-25T11:34:29;4.90;;;2.92;;
16870;SDS011;8552;48.120;-1.456;2023-04-25T11:37:06;4.53;;;3.15;;
16870;SDS011;8552;48.120;-1.456;2023-04-25T11:39:53;4.68;;;2.88;;
16870;SDS011;8552;48.120;-1.456;2023-04-25T11:42:19;7.43;;;2.63;;
16870;SDS011;8552;48.120;-1.456;2023-04-25T11:44:45;3.80;;;2.72;;
16870;SDS011;8552;48.120;-1.456;2023-04-25T11:47:11;4.40;;;2.95;;
16870;SDS011;8552;48.120;-1.456;2023-04-25T11:49:36;4.75;;;3.13;;
16870;SDS011;8552;48.120;-1.456;2023-04-25T11:52:02;2.78;;;2.50;;
16870;SDS011;8552;48.120;-1.456;2023-04-25T11:54:34;3.80;;;2.53;;
16870;SDS011;8552;48.120;-1.456;2023-04-25T11:57:00;3.47;;;2.45;;
16870;SDS011;8552;48.120;-1.456;2023-04-25T11:59:26;4.15;;;2.47;;
16870;SDS011;8552;48.120;-1.456;2023-04-25T12:01:52;3.35;;;2.70;;
16870;SDS011;8552;48.120;-1.456;2023-04-25T12:04:22;4.72;;;2.92;;
16870;SDS011;8552;48.120;-1.456;2023-04-25T12:06:50;4.93;;;2.55;;
16870;SDS011;8552;48.120;-1.456;2023-04-25T12:09:19;5.57;;;2.72;;
16870;SDS011;8552;48.120;-1.456;2023-04-25T12:11:53;6.85;;;2.85;;
16870;SDS011;8552;48.120;-1.456;2023-04-25T12:14:30;3.85;;;2.70;;
16870;SDS011;8552;48.120;-1.456;2023-04-25T12:16:58;4.32;;;2.70;;
16870;SDS011;8552;48.120;-1.456;2023-04-25T12:19:25;3.28;;;2.53;;
16870;SDS011;8552;48.120;-1.456;2023-04-25T12:21:57;3.53;;;2.20;;
16870;SDS011;8552;48.120;-1.456;2023-04-25T12:24:23;3.78;;;2.50;;
16870;SDS011;8552;48.120;-1.456;2023-04-25T12:29:28;3.55;;;2.13;;
16870;SDS011;8552;48.120;-1.456;2023-04-25T12:31:55;3.33;;;2.92;;
16870;SDS011;8552;48.120;-1.456;2023-04-25T12:34:21;3.28;;;2.67;;
16870;SDS011;8552;48.120;-1.456;2023-04-25T12:36:48;4.00;;;2.72;;
16870;SDS011;8552;48.120;-1.456;2023-04-25T12:39:18;5.00;;;2.50;;
16870;SDS011;8552;48.120;-1.456;2023-04-25T12:41:49;4.95;;;2.78;;
16870;SDS011;8552;48.120;-1.456;2023-04-25T12:44:17;2.90;;;2.40;;
16870;SDS011;8552;48.120;-1.456;2023-04-25T12:46:43;5.60;;;2.78;;
16870;SDS011;8552;48.120;-1.456;2023-04-25T12:49:08;5.57;;;3.03;;
16870;SDS011;8552;48.120;-1.456;2023-04-25T12:51:35;4.80;;;2.88;;
16870;SDS011;8552;48.120;-1.456;2023-04-25T12:54:01;3.25;;;2.95;;
16870;SDS011;8552;48.120;-1.456;2023-04-25T12:56:28;5.53;;;3.30;;
16870;SDS011;8552;48.120;-1.456;2023-04-25T12:58:54;4.25;;;2.95;;
16870;SDS011;8552;48.120;-1.456;2023-04-25T13:01:20;3.45;;;3.10;;
16870;SDS011;8552;48.120;-1.456;2023-04-25T13:03:46;4.15;;;3.20;;
16870;SDS011;8552;48.120;-1.456;2023-04-25T13:06:13;5.03;;;3.28;;
16870;SDS011;8552;48.120;-1.456;2023-04-25T13:08:39;3.70;;;3.40;;
16870;SDS011;8552;48.120;-1.456;2023-04-25T13:11:06;5.88;;;3.47;;
16870;SDS011;8552;48.120;-1.456;2023-04-25T13:13:33;5.10;;;3.45;;
16870;SDS011;8552;48.120;-1.456;2023-04-25T13:16:03;5.38;;;4.13;;
16870;SDS011;8552;48.120;-1.456;2023-04-25T13:18:30;5.57;;;3.45;;
16870;SDS011;8552;48.120;-1.456;2023-04-25T13:20:56;4.50;;;3.60;;
16870;SDS011;8552;48.120;-1.456;2023-04-25T13:23:23;4.88;;;3.65;;
16870;SDS011;8552;48.120;-1.456;2023-04-25T13:25:50;5.32;;;3.97;;
16870;SDS011;8552;48.120;-1.456;2023-04-25T13:28:15;5.85;;;3.78;;
16870;SDS011;8552;48.120;-1.456;2023-04-25T13:30:41;4.28;;;3.88;;
16870;SDS011;8552;48.120;-1.456;2023-04-25T13:33:07;4.03;;;3.42;;
16870;SDS011;8552;48.120;-1.456;2023-04-25T13:35:34;4.65;;;3.88;;
16870;SDS011;8552;48.120;-1.456;2023-04-25T13:38:00;4.03;;;3.47;;
16870;SDS011;8552;48.120;-1.456;2023-04-25T13:40:26;5.50;;;3.42;;
16870;SDS011;8552;48.120;-1.456;2023-04-25T13:42:52;5.28;;;3.97;;
16870;SDS011;8552;48.120;-1.456;2023-04-25T13:45:18;6.20;;;3.92;;
16870;SDS011;8552;48.120;-1.456;2023-04-25T13:47:45;11.68;;;3.80;;
16870;SDS011;8552;48.120;-1.456;2023-04-25T13:50:10;5.95;;;4.47;;
16870;SDS011;8552;48.120;-1.456;2023-04-25T13:52:36;5.05;;;3.83;;
16870;SDS011;8552;48.120;-1.456;2023-04-25T13:55:02;4.43;;;3.95;;
16870;SDS011;8552;48.120;-1.456;2023-04-25T13:57:30;5.72;;;3.78;;
16870;SDS011;8552;48.120;-1.456;2023-04-25T13:59:56;5.88;;;3.75;;
16870;SDS011;8552;48.120;-1.456;2023-04-25T14:02:22;5.72;;;3.72;;
16870;SDS011;8552;48.120;-1.456;2023-04-25T14:04:47;5.05;;;4.55;;
16870;SDS011;8552;48.120;-1.456;2023-04-25T14:07:13;5.07;;;4.32;;
16870;SDS011;8552;48.120;-1.456;2023-04-25T14:09:43;4.13;;;3.72;;
16870;SDS011;8552;48.120;-1.456;2023-04-25T14:12:09;9.48;;;4.03;;
16870;SDS011;8552;48.120;-1.456;2023-04-25T14:14:35;4.65;;;3.90;;
16870;SDS011;8552;48.120;-1.456;2023-04-25T14:17:00;4.60;;;3.60;;
16870;SDS011;8552;48.120;-1.456;2023-04-25T14:19:26;4.82;;;3.90;;
16870;SDS011;8552;48.120;-1.456;2023-04-25T14:21:53;5.18;;;3.67;;
16870;SDS011;8552;48.120;-1.456;2023-04-25T14:24:19;4.13;;;3.72;;
16870;SDS011;8552;48.120;-1.456;2023-04-25T14:26:45;4.28;;;3.42;;
16870;SDS011;8552;48.120;-1.456;2023-04-25T14:29:11;5.55;;;3.72;;
16870;SDS011;8552;48.120;-1.456;2023-04-25T14:31:37;5.15;;;3.33;;
16870;SDS011;8552;48.120;-1.456;2023-04-25T14:34:04;7.82;;;4.90;;
16870;SDS011;8552;48.120;-1.456;2023-04-25T14:36:30;5.35;;;4.22;;
16870;SDS011;8552;48.120;-1.456;2023-04-25T14:38:57;5.05;;;4.30;;
16870;SDS011;8552;48.120;-1.456;2023-04-25T14:41:23;5.60;;;3.97;;
16870;SDS011;8552;48.120;-1.456;2023-04-25T14:43:50;5.22;;;4.25;;
16870;SDS011;8552;48.120;-1.456;2023-04-25T14:46:15;6.80;;;4.57;;
16870;SDS011;8552;48.120;-1.456;2023-04-25T14:48:41;4.90;;;3.83;;
16870;SDS011;8552;48.120;-1.456;2023-04-25T14:51:07;3.80;;;3.25;;
16870;SDS011;8552;48.120;-1.456;2023-04-25T14:53:33;4.18;;;3.60;;
16870;SDS011;8552;48.120;-1.456;2023-04-25T14:55:59;4.63;;;3.67;;